Airfield :
LOGIN :

Register | Disclaimer

   EN    FR    IT 

 










Legend :    VFR   Marginal VFR   IFR   Intensive IFR   Very Intensive IFR
Visi :
Ceiling :
>= 8 km
>= 3000ft
5 to 8 km
1000 to 3000 ft
1500m to 5 km
500 to 1000 ft
800 to 1500m
200 to 500 ft
< 800m
< 200 ft
Symbols :   Thunderstorms  Fog  Heavy snow  Heavy precipitations  Wind > 20 kt
SIGMETs :     Misc.  Thunderstorms  Icing  Turbulence  Mountain Waves  Volcanic Ashes







- Airport Elevation : 876 ft
- IATA code : MBX


LJMB - Maribor

CURRENT METAR :
  • 171400Z 18006KT 150V220 9999 -SHRA BKN040 FEW060CB 22/19 Q1013

EXPIRED METARs :
  • 171330Z VRB02KT 9999 -SHRA SCT030 BKN050 FEW060CB 24/17 Q1014
  • 171300Z 07004KT 9999 SCT033 BKN110 24/17 Q1014
  • 171230Z 06004KT 9999 SCT033 BKN110 25/17 Q1014
  • 171200Z 10004KT 070V130 9999 SCT033 BKN110 24/17 Q1014
  • 171130Z 12004KT 070V190 9999 FEW040 25/17 Q1015

TAF TAF LJMB
Valid from the 17 at 12:00 until the 18 at 12:00 UTC


171100Z 1712/1812 19005KT 9999 FEW040 SCT100
PROB30
TEMPO 1713/1718 VRB10G20KT 7000 TSRA SCT045CB BKN060
PROB40
TEMPO 1718/1806 7000 -RA BKN033
BECMG 1723/1802 03008KT
TEMPO 1806/1812 BKN033
No reported NOTAMs for that airfield.



MET'MAP, your aeronautical weather chart ! - Copyright ORBIFLY December 2007 - Disclaimer

ORBIFLY MET'MAP TEAM :

Programming & Development : Alexandra Zaïnal
Concept & Development : Baudouin d'Aumeries
Co-Development & Prog : Marc-Olivier Méhu
Technical & hardware support : Manuel Goepfert

Contact : metmap@orbifly.com




SOURCES & CREDITS :

   NOAA